createdAt,value
2022-11-11T00:01:24.691Z,16.92
2022-11-11T00:04:59.166Z,19.65
2022-11-11T00:08:20.712Z,20.60
2022-11-11T00:11:54.308Z,17.53
2022-11-11T00:15:09.740Z,21.08
2022-11-11T00:18:41.669Z,13.55
2022-11-11T00:22:14.014Z,17.40
2022-11-11T00:25:30.958Z,16.10
2022-11-11T00:28:51.633Z,19.90
2022-11-11T00:35:33.751Z,18.85
2022-11-11T00:38:52.415Z,20.48
2022-11-11T00:42:13.938Z,20.17
2022-11-11T00:45:41.375Z,15.57
2022-11-11T00:48:58.631Z,25.00
2022-11-11T00:52:04.668Z,21.83
2022-11-11T00:55:26.653Z,20.58
2022-11-11T00:58:35.334Z,20.80
2022-11-11T01:02:01.552Z,23.17
2022-11-11T01:05:12.892Z,24.25
2022-11-11T01:08:38.599Z,22.25
2022-11-11T01:11:49.215Z,21.05
2022-11-11T01:15:01.916Z,17.50
2022-11-11T01:18:31.753Z,19.73
2022-11-11T01:21:51.758Z,25.42
2022-11-11T01:25:07.267Z,18.60
2022-11-11T01:28:32.362Z,21.75
2022-11-11T01:31:48.341Z,19.57
2022-11-11T01:35:02.585Z,18.07
2022-11-11T01:38:22.677Z,18.50
2022-11-11T01:41:32.025Z,16.50
2022-11-11T01:45:26.711Z,17.80
2022-11-11T01:48:51.221Z,20.50
2022-11-11T01:52:32.783Z,18.90
2022-11-11T01:56:16.586Z,19.00
2022-11-11T01:59:31.994Z,17.35
2022-11-11T02:07:04.681Z,20.23
2022-11-11T02:10:11.522Z,22.47
2022-11-11T02:17:26.863Z,18.27
2022-11-11T02:20:44.487Z,21.25
2022-11-11T02:24:44.462Z,20.90
2022-11-11T02:28:06.657Z,16.73
2022-11-11T02:31:19.451Z,21.23
2022-11-11T02:34:38.888Z,21.83
2022-11-11T02:37:54.754Z,21.30
2022-11-11T02:41:02.716Z,21.13
2022-11-11T02:44:42.498Z,19.67
2022-11-11T02:47:48.432Z,24.17
2022-11-11T02:51:06.709Z,21.27
2022-11-11T02:54:46.936Z,27.52
2022-11-11T02:57:58.164Z,22.20
2022-11-11T03:01:08.822Z,20.33
2022-11-11T03:04:31.121Z,26.80
2022-11-11T03:07:49.398Z,21.37
2022-11-11T03:11:06.826Z,22.87
2022-11-11T03:14:34.626Z,22.30
2022-11-11T03:17:46.860Z,20.37
2022-11-11T03:21:01.150Z,25.15
2022-11-11T03:24:30.630Z,24.20
2022-11-11T03:27:44.645Z,24.10
2022-11-11T03:31:08.583Z,21.50
2022-11-11T03:34:29.135Z,21.43
2022-11-11T03:37:51.637Z,23.77
2022-11-11T03:40:59.435Z,22.10
2022-11-11T03:44:32.645Z,21.58
2022-11-11T03:47:46.595Z,25.07
2022-11-11T03:50:55.706Z,21.77
2022-11-11T03:54:35.061Z,23.30
2022-11-11T03:57:56.658Z,24.50
2022-11-11T04:01:01.227Z,24.33
2022-11-11T04:04:35.725Z,24.43
2022-11-11T04:07:37.457Z,23.43
2022-11-11T04:10:55.752Z,25.25
2022-11-11T04:14:39.714Z,22.55
2022-11-11T04:17:55.448Z,21.23
2022-11-11T04:21:12.567Z,26.60
2022-11-11T04:24:36.397Z,25.93
2022-11-11T04:27:38.517Z,22.17
2022-11-11T04:30:53.620Z,25.35
2022-11-11T04:34:33.347Z,27.45
2022-11-11T04:37:57.697Z,28.67
2022-11-11T04:41:02.510Z,28.97
2022-11-11T04:44:29.626Z,29.63
2022-11-11T04:47:37.691Z,25.15
2022-11-11T04:50:51.713Z,23.35
2022-11-11T04:54:35.804Z,26.63
2022-11-11T04:57:47.074Z,26.57
2022-11-11T05:01:04.701Z,24.75
2022-11-11T05:04:28.715Z,26.37
2022-11-11T05:07:46.667Z,23.27
2022-11-11T05:10:48.379Z,29.87
2022-11-11T05:14:48.056Z,29.63
2022-11-11T05:17:53.906Z,26.77
2022-11-11T05:21:24.717Z,31.48
2022-11-11T05:24:31.181Z,32.30
2022-11-11T05:27:50.494Z,25.37
2022-11-11T05:31:02.582Z,26.53
2022-11-11T05:34:40.771Z,30.90
2022-11-11T05:37:47.820Z,26.98
2022-11-11T05:41:09.972Z,28.48
2022-11-11T05:44:58.716Z,27.27
2022-11-11T05:48:16.627Z,32.33
2022-11-11T05:51:44.803Z,26.90
2022-11-11T05:55:02.486Z,33.17
2022-11-11T06:17:43.774Z,32.17
2022-11-11T06:21:36.774Z,32.10
2022-11-11T06:28:08.240Z,35.35
2022-11-11T06:34:59.729Z,47.62
2022-11-11T06:38:09.339Z,82.20
2022-11-11T06:45:38.946Z,33.25
2022-11-11T06:49:01.729Z,31.27
2022-11-11T06:52:19.799Z,32.40
2022-11-11T06:56:30.682Z,35.17
2022-11-11T07:07:24.885Z,33.97
2022-11-11T07:10:40.552Z,28.15
2022-11-11T07:14:54.898Z,30.77
2022-11-11T07:18:49.022Z,26.90
2022-11-11T07:38:05.358Z,27.47
2022-11-11T07:48:55.261Z,28.92
2022-11-11T08:08:21.462Z,28.62
2022-11-11T08:15:24.472Z,26.00
2022-11-11T08:26:48.427Z,28.52
2022-11-11T08:38:17.954Z,28.02
2022-11-11T08:41:28.703Z,34.10
2022-11-11T08:45:09.414Z,31.58
2022-11-11T09:41:33.975Z,24.98
2022-11-11T10:06:00.430Z,35.20
2022-11-11T10:09:42.722Z,33.67
2022-11-11T12:07:18.311Z,24.35
2022-11-11T12:30:38.309Z,27.40
2022-11-11T12:34:57.365Z,24.55
2022-11-11T12:38:47.683Z,27.90
2022-11-11T12:51:11.867Z,11.80
2022-11-11T12:55:35.109Z,8.18
2022-11-11T12:59:42.470Z,10.87
2022-11-11T13:15:41.058Z,8.60
2022-11-11T14:57:05.108Z,10.83
2022-11-11T15:08:02.936Z,9.30
2022-11-11T15:11:40.731Z,12.43
2022-11-11T15:15:04.011Z,12.47
2022-11-11T15:18:39.862Z,14.77
2022-11-11T15:21:53.503Z,12.85
2022-11-11T15:25:41.194Z,14.00
2022-11-11T15:29:04.140Z,11.65
2022-11-11T15:36:22.747Z,10.20
2022-11-11T15:40:31.845Z,11.00
2022-11-11T15:43:41.922Z,14.20
2022-11-11T15:47:00.824Z,11.45
2022-11-11T15:50:03.324Z,12.20
2022-11-11T15:53:20.154Z,10.53
2022-11-11T16:12:21.877Z,15.63
2022-11-11T16:22:42.874Z,19.02
2022-11-11T19:25:28.014Z,26.30
2022-11-11T20:57:39.925Z,31.98
2022-11-11T21:34:19.917Z,43.60
2022-11-11T21:38:26.229Z,37.03
2022-11-11T21:46:08.939Z,38.77
2022-11-11T21:54:02.493Z,42.70
2022-11-11T21:57:36.062Z,39.75
2022-11-11T22:05:15.998Z,36.30
2022-11-11T22:17:03.245Z,42.42
2022-11-11T22:24:39.971Z,40.80
2022-11-11T22:28:14.920Z,34.73
2022-11-11T22:32:28.746Z,39.95
2022-11-11T22:44:31.107Z,37.60
2022-11-11T22:59:50.903Z,36.70
2022-11-11T23:25:45.972Z,36.37
2022-11-11T23:29:42.270Z,34.97
2022-11-11T23:33:21.412Z,38.25
2022-11-11T23:36:55.926Z,33.63
2022-11-11T23:40:18.088Z,36.67
2022-11-11T23:43:36.955Z,41.27
2022-11-11T23:47:25.459Z,38.05
2022-11-11T23:54:53.266Z,37.05
2022-11-11T23:58:36.673Z,33.23
